KMTW/MTW METAR and TAF weather

Enter ICAO airport designator
Station Type Date Time Source
KMTW METAR 2020/03/28 08:06 UTC NOAA

KMTW 280806Z AUTO 02004KT 6SM -RA BR BKN004 OVC055 03/03 A2984 RMK AO2 P0000


Station Type Date Time Source
KMTW Decoded METAR 2020/03/28 08:06 UTC NOAA

Manitowoc, Manitowoc County Airport, WI, United States (KMTW) 44-08N 087-41W
Mar 28, 2020 - 04:06 AM EDT / 2020.03.28 0806 UTC
Wind: from the NNE (020 degrees) at 5 MPH (4 KT):0
Visibility: 6 mile(s):0
Sky conditions: overcast
Weather: light rain; mist
Precipitation last hour: A trace
Temperature: 37 F (3 C)
Dew Point: 37 F (3 C)
Relative Humidity: 100%
Pressure (altimeter): 29.84 in. Hg (1010 hPa)
ob: KMTW 280806Z AUTO 02004KT 6SM -RA BR BKN004 OVC055 03/03 A2984 RMK AO2 P0000
cycle: 8

Station Type Date Time Source
KMTW TAF 2020/03/28 06:42 UTC NOAA

TAF KMTW 280539Z 2806/2906 07009KT 6SM -RA BR SCT003 OVC040
TEMPO 2806/2810 2SM -RA BR BKN003
FM281000 06012G19KT 4SM -SHRA BR OVC006
FM282100 07014G24KT 2SM SHRA BR OVC002 WS020/15035KT
FM290100 09014G24KT 3SM SHRA BR OVC001 WS017/15040KT
FM290300 11012G21KT 2SM SHRA BR BKN005 WS020/20040KT

Example: see airport list